createdAt,value
2022-09-26T00:00:47.931Z,93.47
2022-09-26T00:03:14.998Z,94.33
2022-09-26T00:05:41.613Z,94.30
2022-09-26T00:08:08.193Z,94.96
2022-09-26T00:10:34.964Z,95.04
2022-09-26T00:13:01.617Z,94.51
2022-09-26T00:15:28.243Z,94.66
2022-09-26T00:17:54.831Z,94.59
2022-09-26T00:20:21.390Z,94.80
2022-09-26T00:22:47.977Z,94.72
2022-09-26T00:25:14.522Z,92.32
2022-09-26T00:27:41.082Z,92.76
2022-09-26T00:30:08.128Z,92.71
2022-09-26T00:32:34.740Z,92.27
2022-09-26T00:35:01.293Z,93.09
2022-09-26T00:37:27.947Z,93.50
2022-09-26T00:39:54.524Z,94.02
2022-09-26T00:42:23.094Z,94.31
2022-09-26T00:44:55.280Z,93.62
2022-09-26T00:47:25.444Z,94.46
2022-09-26T00:49:58.548Z,95.22
2022-09-26T00:52:29.633Z,95.09
2022-09-26T00:55:01.353Z,94.52
2022-09-26T00:57:35.681Z,94.69
2022-09-26T01:00:09.371Z,95.36
2022-09-26T01:02:36.608Z,95.46
2022-09-26T01:05:05.763Z,94.82
2022-09-26T01:07:34.381Z,94.17
2022-09-26T01:10:05.076Z,93.35
2022-09-26T01:12:32.732Z,94.67
2022-09-26T01:14:59.438Z,95.09
2022-09-26T01:17:26.793Z,95.00
2022-09-26T01:20:11.678Z,94.66
2022-09-26T01:22:56.959Z,94.02
2022-09-26T01:25:55.101Z,95.14
2022-09-26T01:29:12.816Z,95.89
2022-09-26T01:32:27.334Z,93.84
2022-09-26T01:35:18.900Z,93.91
2022-09-26T01:38:07.300Z,94.46
2022-09-26T01:40:33.846Z,95.10
2022-09-26T01:43:20.148Z,95.56
2022-09-26T01:46:00.719Z,95.88
2022-09-26T01:48:58.875Z,96.42
2022-09-26T01:51:36.027Z,96.80
2022-09-26T01:54:25.482Z,96.98
2022-09-26T01:56:57.468Z,97.28
2022-09-26T01:59:40.987Z,99.14
2022-09-26T02:02:19.241Z,98.74
2022-09-26T02:04:50.295Z,97.34
2022-09-26T02:07:23.379Z,97.53
2022-09-26T02:10:05.568Z,97.08
2022-09-26T02:12:40.087Z,96.76
2022-09-26T02:15:15.103Z,97.69
2022-09-26T02:17:53.179Z,95.81
2022-09-26T02:20:29.566Z,95.94
2022-09-26T02:23:03.916Z,95.61
2022-09-26T02:25:31.542Z,96.97
2022-09-26T02:27:58.305Z,96.86
2022-09-26T02:30:24.979Z,95.96
2022-09-26T02:32:51.579Z,96.75
2022-09-26T02:35:37.570Z,99.46
2022-09-26T02:38:06.365Z,100.00
2022-09-26T02:40:44.918Z,100.00
2022-09-26T02:43:40.605Z,100.00
2022-09-26T02:46:49.180Z,100.00
2022-09-26T02:49:45.509Z,100.00
2022-09-26T02:52:37.200Z,100.00
2022-09-26T02:55:10.544Z,100.00
2022-09-26T02:57:54.876Z,100.00
2022-09-26T03:00:26.076Z,100.00
2022-09-26T03:03:12.702Z,100.00
2022-09-26T03:05:43.183Z,100.00
2022-09-26T03:08:16.315Z,100.00
2022-09-26T03:10:44.682Z,100.00
2022-09-26T03:13:13.350Z,98.92
2022-09-26T03:15:45.234Z,98.61
2022-09-26T03:18:19.279Z,98.77
2022-09-26T03:20:46.806Z,98.08
2022-09-26T03:23:13.493Z,98.64
2022-09-26T03:25:40.938Z,98.43
2022-09-26T03:28:07.575Z,98.28
2022-09-26T03:30:34.773Z,96.82
2022-09-26T03:33:03.268Z,97.13
2022-09-26T03:35:30.323Z,97.93
2022-09-26T03:37:56.880Z,96.97
2022-09-26T03:40:23.513Z,97.62
2022-09-26T03:42:50.250Z,98.65
2022-09-26T03:45:17.370Z,100.00
2022-09-26T03:47:43.989Z,100.00
2022-09-26T03:50:10.820Z,100.00
2022-09-26T03:52:37.391Z,100.00
2022-09-26T03:55:04.913Z,100.00
2022-09-26T03:57:31.527Z,100.00
2022-09-26T03:59:58.102Z,100.00
2022-09-26T04:02:25.174Z,100.00
2022-09-26T04:04:51.945Z,100.00
2022-09-26T04:07:18.565Z,100.00
2022-09-26T04:09:45.168Z,100.00
2022-09-26T04:12:11.802Z,100.00
2022-09-26T04:14:38.398Z,100.00
2022-09-26T04:17:05.009Z,100.00
2022-09-26T04:19:31.851Z,100.00
2022-09-26T04:21:59.042Z,100.00
2022-09-26T04:24:25.685Z,100.00
2022-09-26T04:26:52.322Z,100.00
2022-09-26T04:29:18.955Z,100.00
2022-09-26T04:31:45.894Z,100.00
2022-09-26T04:34:12.882Z,100.00
2022-09-26T04:36:39.537Z,99.68
2022-09-26T04:39:06.571Z,99.35
2022-09-26T04:41:33.641Z,99.32
2022-09-26T04:44:01.088Z,99.97
2022-09-26T04:46:31.001Z,98.27
2022-09-26T04:48:59.788Z,97.10
2022-09-26T04:51:27.979Z,99.55
2022-09-26T04:53:54.984Z,100.00
2022-09-26T04:56:23.754Z,100.00
2022-09-26T04:58:50.995Z,100.00
2022-09-26T05:01:20.105Z,99.98
2022-09-26T05:03:47.362Z,98.47
2022-09-26T05:06:15.216Z,100.00
2022-09-26T05:08:44.688Z,100.00
2022-09-26T05:11:11.380Z,100.00
2022-09-26T05:13:38.888Z,99.94
2022-09-26T05:16:08.906Z,100.00
2022-09-26T05:18:36.338Z,100.00
2022-09-26T05:21:03.817Z,100.00
2022-09-26T05:24:08.796Z,100.00
2022-09-26T05:26:44.492Z,100.00
2022-09-26T05:29:12.138Z,100.00
2022-09-26T05:31:40.083Z,98.76
2022-09-26T05:34:09.593Z,97.34
2022-09-26T05:36:37.000Z,96.76
2022-09-26T05:39:05.303Z,94.65
2022-09-26T05:41:33.619Z,93.38
2022-09-26T05:44:00.307Z,94.05
2022-09-26T05:46:31.880Z,94.15
2022-09-26T05:48:58.531Z,91.63
2022-09-26T05:51:25.365Z,89.85
2022-09-26T05:53:52.037Z,87.68
2022-09-26T05:56:19.812Z,88.05
2022-09-26T05:58:46.791Z,86.62
2022-09-26T06:01:18.408Z,85.27
2022-09-26T06:03:46.723Z,83.08
2022-09-26T06:06:22.142Z,82.39
2022-09-26T06:08:49.220Z,82.23
2022-09-26T06:11:19.128Z,81.46
2022-09-26T06:13:46.493Z,80.56
2022-09-26T06:16:18.364Z,80.96
2022-09-26T06:18:46.968Z,79.87
2022-09-26T06:21:16.089Z,77.84
2022-09-26T06:23:42.723Z,77.48
2022-09-26T06:26:14.935Z,76.57
2022-09-26T06:28:41.584Z,74.83
2022-09-26T06:31:13.740Z,74.77
2022-09-26T06:33:41.246Z,74.93
2022-09-26T06:36:10.510Z,74.20
2022-09-26T06:38:38.366Z,72.42
2022-09-26T06:41:07.446Z,70.28
2022-09-26T06:43:34.360Z,69.70
2022-09-26T06:46:01.025Z,68.57
2022-09-26T06:48:27.779Z,67.67
2022-09-26T06:50:57.094Z,66.13
2022-09-26T06:53:24.010Z,65.42
2022-09-26T06:55:50.636Z,65.28
2022-09-26T06:58:17.538Z,64.00
2022-09-26T07:00:44.544Z,63.59
2022-09-26T07:03:13.538Z,62.69
2022-09-26T07:05:40.108Z,61.90
2022-09-26T07:08:07.043Z,61.13
2022-09-26T07:10:37.663Z,60.10
2022-09-26T07:13:07.967Z,59.37
2022-09-26T07:15:36.159Z,58.05
2022-09-26T07:18:06.497Z,56.16
2022-09-26T07:20:36.297Z,57.25
2022-09-26T07:23:10.651Z,56.03
2022-09-26T07:25:39.655Z,52.91
2022-09-26T07:28:07.407Z,52.47
2022-09-26T07:30:34.634Z,52.64
2022-09-26T07:33:03.767Z,52.55
2022-09-26T07:35:35.505Z,52.75
2022-09-26T07:38:02.603Z,54.03
2022-09-26T07:40:29.301Z,52.77
2022-09-26T07:43:18.595Z,51.56
2022-09-26T07:46:04.885Z,50.93
2022-09-26T07:48:50.254Z,50.47
2022-09-26T07:51:16.860Z,50.70
2022-09-26T07:53:43.424Z,49.88
2022-09-26T07:56:12.746Z,49.76
2022-09-26T07:58:43.315Z,49.53
2022-09-26T08:01:12.481Z,48.93
2022-09-26T08:03:40.302Z,47.44
2022-09-26T08:06:07.237Z,48.22
2022-09-26T08:08:34.234Z,45.51
2022-09-26T08:11:03.894Z,45.76
2022-09-26T08:13:32.579Z,45.22
2022-09-26T08:16:06.231Z,45.33
2022-09-26T08:18:33.229Z,45.49
2022-09-26T08:21:02.013Z,45.06
2022-09-26T08:23:29.426Z,45.65
2022-09-26T08:26:00.409Z,44.77
2022-09-26T08:28:28.815Z,43.25
2022-09-26T08:31:00.377Z,43.58
2022-09-26T08:33:27.232Z,43.85
2022-09-26T08:35:53.799Z,42.72
2022-09-26T08:38:20.530Z,42.65
2022-09-26T08:41:03.731Z,42.02
2022-09-26T08:43:45.804Z,41.89
2022-09-26T08:46:45.374Z,41.44
2022-09-26T08:49:48.225Z,41.89
2022-09-26T08:52:37.728Z,42.18
2022-09-26T08:55:18.055Z,41.73
2022-09-26T08:57:55.496Z,41.94
2022-09-26T09:00:24.929Z,41.09
2022-09-26T09:03:10.589Z,41.32
2022-09-26T09:05:58.767Z,41.42
2022-09-26T09:08:38.820Z,42.38
2022-09-26T09:11:33.821Z,42.24
2022-09-26T09:14:03.513Z,42.83
2022-09-26T09:16:51.660Z,42.31
2022-09-26T09:19:23.708Z,42.59
2022-09-26T09:22:05.916Z,42.04
2022-09-26T09:24:41.093Z,40.77
2022-09-26T09:30:43.653Z,40.34
2022-09-26T09:33:15.795Z,40.54
2022-09-26T09:36:08.828Z,39.79
2022-09-26T09:38:39.113Z,39.54
2022-09-26T09:41:19.733Z,39.56
2022-09-26T09:44:18.858Z,39.21
2022-09-26T09:46:45.473Z,38.99
2022-09-26T09:49:19.631Z,38.92
2022-09-26T09:51:54.672Z,38.71
2022-09-26T09:54:30.421Z,39.58
2022-09-26T09:57:26.265Z,39.37
2022-09-26T10:00:10.469Z,39.44
2022-09-26T10:03:01.539Z,39.05
2022-09-26T10:05:46.762Z,38.58
2022-09-26T10:08:16.888Z,38.55
2022-09-26T10:11:00.980Z,38.22
2022-09-26T10:13:31.572Z,38.03
2022-09-26T10:16:04.796Z,38.06
2022-09-26T10:18:31.725Z,37.13
2022-09-26T10:21:02.622Z,36.96
2022-09-26T10:23:36.808Z,37.10
2022-09-26T10:26:07.377Z,36.38
2022-09-26T10:28:45.288Z,36.52
2022-09-26T10:31:21.983Z,36.89
2022-09-26T10:33:58.801Z,36.16
2022-09-26T10:36:31.430Z,35.67
2022-09-26T10:39:19.016Z,35.82
2022-09-26T10:41:46.893Z,36.71
2022-09-26T10:44:25.983Z,36.70
2022-09-26T10:46:57.560Z,36.51
2022-09-26T10:49:34.915Z,36.45
2022-09-26T10:52:18.653Z,36.41
2022-09-26T10:55:09.806Z,36.52
2022-09-26T10:57:39.916Z,36.63
2022-09-26T11:00:08.589Z,37.09
2022-09-26T11:02:38.214Z,38.13
2022-09-26T11:05:24.524Z,37.52
2022-09-26T11:07:52.520Z,37.29
2022-09-26T11:10:34.321Z,36.74
2022-09-26T11:13:05.244Z,36.42
2022-09-26T11:15:31.968Z,36.58
2022-09-26T11:17:58.947Z,37.30
2022-09-26T11:20:55.421Z,36.15
2022-09-26T11:23:34.798Z,36.42
2022-09-26T11:26:22.177Z,36.00
2022-09-26T11:29:02.091Z,36.20
2022-09-26T11:31:34.888Z,36.05
2022-09-26T11:34:04.531Z,35.40
2022-09-26T11:36:49.820Z,34.89
2022-09-26T11:39:30.987Z,35.28
2022-09-26T11:42:16.023Z,35.46
2022-09-26T11:44:56.676Z,35.95
2022-09-26T11:47:41.459Z,35.75
2022-09-26T11:50:26.258Z,36.37
2022-09-26T11:53:09.493Z,36.88
2022-09-26T11:56:01.560Z,36.44
2022-09-26T11:58:59.376Z,36.45
2022-09-26T12:01:42.562Z,37.03
2022-09-26T12:04:16.174Z,37.27
2022-09-26T12:06:45.947Z,37.79
2022-09-26T12:09:35.831Z,37.98
2022-09-26T12:12:39.677Z,37.44
2022-09-26T12:15:23.557Z,37.82
2022-09-26T12:18:02.062Z,36.06
2022-09-26T12:20:53.164Z,36.79
2022-09-26T12:23:38.580Z,36.49
2022-09-26T12:26:23.593Z,36.72
2022-09-26T12:28:59.181Z,36.63
2022-09-26T12:31:44.823Z,36.33
2022-09-26T12:34:41.596Z,35.33
2022-09-26T12:37:33.720Z,34.38
2022-09-26T12:40:18.421Z,35.20
2022-09-26T12:42:54.071Z,34.59
2022-09-26T12:45:43.584Z,33.67
2022-09-26T12:48:39.181Z,33.19
2022-09-26T12:51:33.411Z,33.25
2022-09-26T12:54:15.629Z,33.21
2022-09-26T12:56:54.750Z,33.83
2022-09-26T12:59:27.377Z,33.54
2022-09-26T13:02:10.923Z,33.57
2022-09-26T13:04:46.989Z,32.79
2022-09-26T13:07:41.566Z,33.22
2022-09-26T13:10:31.820Z,34.06
2022-09-26T13:13:33.408Z,34.79
2022-09-26T13:16:18.687Z,34.95
2022-09-26T13:18:49.942Z,34.74
2022-09-26T13:21:21.548Z,34.75
2022-09-26T13:23:55.893Z,34.49
2022-09-26T13:26:42.728Z,33.44
2022-09-26T13:29:18.165Z,33.54
2022-09-26T13:31:55.493Z,33.20
2022-09-26T13:34:29.429Z,33.09
2022-09-26T13:36:59.447Z,33.70
2022-09-26T13:39:52.795Z,33.74
2022-09-26T13:42:39.166Z,32.62
2022-09-26T13:45:22.427Z,34.24
2022-09-26T13:47:56.829Z,32.50
2022-09-26T13:50:38.531Z,31.60
2022-09-26T13:53:40.544Z,31.55
2022-09-26T13:56:32.079Z,32.65
2022-09-26T13:59:23.456Z,31.66
2022-09-26T14:02:19.898Z,30.47
2022-09-26T14:04:48.247Z,29.82
2022-09-26T14:08:02.278Z,32.08
2022-09-26T14:10:37.771Z,33.57
2022-09-26T14:13:18.191Z,33.56
2022-09-26T14:15:50.868Z,33.64
2022-09-26T14:18:38.607Z,33.65
2022-09-26T14:21:12.601Z,33.48
2022-09-26T14:23:47.580Z,33.96
2022-09-26T14:26:21.324Z,33.82
2022-09-26T14:28:52.992Z,33.99
2022-09-26T14:31:25.896Z,34.36
2022-09-26T14:34:10.907Z,34.19
2022-09-26T14:36:38.049Z,34.51
2022-09-26T14:39:05.826Z,34.50
2022-09-26T14:41:34.970Z,34.65
2022-09-26T14:44:04.690Z,34.97
2022-09-26T14:46:35.503Z,34.84
2022-09-26T14:49:05.503Z,34.85
2022-09-26T14:51:41.601Z,35.02
2022-09-26T14:54:39.661Z,34.87
2022-09-26T14:57:08.510Z,34.66
2022-09-26T14:59:35.358Z,35.13
2022-09-26T15:02:17.165Z,35.08
2022-09-26T15:05:06.808Z,34.87
2022-09-26T15:07:46.626Z,35.05
2022-09-26T15:10:13.695Z,34.85
2022-09-26T15:12:48.400Z,35.01
2022-09-26T15:15:18.383Z,35.44
2022-09-26T15:17:53.831Z,35.73
2022-09-26T15:20:22.664Z,35.73
2022-09-26T15:22:50.136Z,35.55
2022-09-26T15:25:25.057Z,35.77
2022-09-26T15:27:55.764Z,35.69
2022-09-26T15:30:27.299Z,35.88
2022-09-26T15:32:58.186Z,35.95
2022-09-26T15:35:27.203Z,35.89
2022-09-26T15:38:12.960Z,36.10
2022-09-26T15:40:39.640Z,36.32
2022-09-26T15:43:09.715Z,36.51
2022-09-26T15:45:46.365Z,37.01
2022-09-26T15:48:19.193Z,37.40
2022-09-26T15:51:11.246Z,38.12
2022-09-26T15:53:50.416Z,38.60
2022-09-26T15:56:47.467Z,39.79
2022-09-26T15:59:20.093Z,40.24
2022-09-26T16:01:52.399Z,40.84
2022-09-26T16:04:30.786Z,42.29
2022-09-26T16:07:00.472Z,42.96
2022-09-26T16:09:33.831Z,42.86
2022-09-26T16:12:20.702Z,43.82
2022-09-26T16:15:16.966Z,44.35
2022-09-26T16:17:52.467Z,44.97
2022-09-26T16:20:19.144Z,45.10
2022-09-26T16:22:51.727Z,45.10
2022-09-26T16:25:18.756Z,45.15
2022-09-26T16:27:59.483Z,45.77
2022-09-26T16:30:27.149Z,46.46
2022-09-26T16:33:18.086Z,46.59
2022-09-26T16:35:47.315Z,48.46
2022-09-26T16:38:29.234Z,48.08
2022-09-26T16:41:09.860Z,48.66
2022-09-26T16:43:38.484Z,48.85
2022-09-26T16:46:14.716Z,48.59
2022-09-26T16:48:42.518Z,49.49
2022-09-26T16:51:14.303Z,50.48
2022-09-26T16:53:45.224Z,50.93
2022-09-26T16:56:19.199Z,51.38
2022-09-26T16:58:58.875Z,52.31
2022-09-26T17:01:44.663Z,52.90
2022-09-26T17:04:20.015Z,53.59
2022-09-26T17:06:47.719Z,53.50
2022-09-26T17:09:29.828Z,53.60
2022-09-26T17:12:12.272Z,54.00
2022-09-26T17:14:41.334Z,54.68
2022-09-26T17:17:16.262Z,54.87
2022-09-26T17:19:45.360Z,54.86
2022-09-26T17:22:16.611Z,54.63
2022-09-26T17:24:43.604Z,54.24
2022-09-26T17:27:16.557Z,55.17
2022-09-26T17:29:48.944Z,55.12
2022-09-26T17:32:28.536Z,55.43
2022-09-26T17:35:00.935Z,55.01
2022-09-26T17:37:28.424Z,55.60
2022-09-26T17:39:56.001Z,56.60
2022-09-26T17:42:23.379Z,56.93
2022-09-26T17:44:50.573Z,57.27
2022-09-26T17:47:19.273Z,57.73
2022-09-26T17:49:56.157Z,57.61
2022-09-26T17:52:25.888Z,57.58
2022-09-26T17:54:57.494Z,58.14
2022-09-26T17:57:25.676Z,57.78
2022-09-26T17:59:55.106Z,58.20
2022-09-26T18:02:36.530Z,58.50
2022-09-26T18:05:10.762Z,59.32
2022-09-26T18:07:41.033Z,59.06
2022-09-26T18:10:17.166Z,59.62
2022-09-26T18:12:45.256Z,60.09
2022-09-26T18:15:16.232Z,60.02
2022-09-26T18:17:43.590Z,60.18
2022-09-26T18:20:10.280Z,60.90
2022-09-26T18:22:36.966Z,60.82
2022-09-26T18:25:07.911Z,60.72
2022-09-26T18:27:40.650Z,60.59
2022-09-26T18:30:11.750Z,60.14
2022-09-26T18:32:41.731Z,60.52
2022-09-26T18:35:31.369Z,60.48
2022-09-26T18:37:58.783Z,60.69
2022-09-26T18:40:28.573Z,61.21
2022-09-26T18:42:57.841Z,60.87
2022-09-26T18:45:29.671Z,61.39
2022-09-26T18:47:57.097Z,61.12
2022-09-26T18:50:31.739Z,61.45
2022-09-26T18:52:58.414Z,62.59
2022-09-26T18:55:45.053Z,62.45
2022-09-26T18:58:40.421Z,62.91
2022-09-26T19:01:20.355Z,64.25
2022-09-26T19:03:48.581Z,65.10
2022-09-26T19:06:19.973Z,64.54
2022-09-26T19:08:49.780Z,64.18
2022-09-26T19:11:22.516Z,63.78
2022-09-26T19:13:55.102Z,63.79
2022-09-26T19:16:23.264Z,63.44
2022-09-26T19:18:50.500Z,63.32
2022-09-26T19:21:28.555Z,63.67
2022-09-26T19:23:55.640Z,63.60
2022-09-26T19:26:27.738Z,63.95
2022-09-26T19:28:56.788Z,64.63
2022-09-26T19:31:23.699Z,63.96
2022-09-26T19:33:50.789Z,64.64
2022-09-26T19:36:19.492Z,64.15
2022-09-26T19:38:46.192Z,64.89
2022-09-26T19:41:13.193Z,64.36
2022-09-26T19:43:39.910Z,64.25
2022-09-26T19:46:13.345Z,64.16
2022-09-26T19:48:42.281Z,64.13
2022-09-26T19:51:13.046Z,64.55
2022-09-26T19:53:39.763Z,64.67
2022-09-26T19:56:07.052Z,65.29
2022-09-26T19:58:33.933Z,66.73
2022-09-26T20:01:06.904Z,66.43
2022-09-26T20:03:39.924Z,65.77
2022-09-26T20:06:26.400Z,65.75
2022-09-26T20:09:00.449Z,66.19
2022-09-26T20:11:28.177Z,66.20
2022-09-26T20:14:13.211Z,66.19
2022-09-26T20:16:42.307Z,66.45
2022-09-26T20:19:16.101Z,66.71
2022-09-26T20:21:43.006Z,66.70
2022-09-26T20:24:16.470Z,66.75
2022-09-26T20:26:43.409Z,67.72
2022-09-26T20:29:14.982Z,68.60
2022-09-26T20:31:44.392Z,69.95
2022-09-26T20:34:11.625Z,70.14
2022-09-26T20:36:42.408Z,70.75
2022-09-26T20:39:17.512Z,70.76
2022-09-26T20:41:44.353Z,71.35
2022-09-26T20:44:15.974Z,73.06
2022-09-26T20:46:56.272Z,72.56
2022-09-26T20:49:30.054Z,74.69
2022-09-26T20:51:58.347Z,75.67
2022-09-26T20:54:30.635Z,75.75
2022-09-26T20:56:58.685Z,76.63
2022-09-26T20:59:26.322Z,77.57
2022-09-26T21:01:54.588Z,77.25
2022-09-26T21:04:29.806Z,78.34
2022-09-26T21:06:56.665Z,79.15
2022-09-26T21:09:23.266Z,79.82
2022-09-26T21:11:50.010Z,78.54
2022-09-26T21:14:18.171Z,78.96
2022-09-26T21:16:51.890Z,81.11
2022-09-26T21:19:23.841Z,81.06
2022-09-26T21:21:52.094Z,80.64
2022-09-26T21:24:25.460Z,82.31
2022-09-26T21:26:52.106Z,84.08
2022-09-26T21:29:18.743Z,84.84
2022-09-26T21:31:49.159Z,86.46
2022-09-26T21:34:27.767Z,86.98
2022-09-26T21:36:56.987Z,89.49
2022-09-26T21:39:25.625Z,88.60
2022-09-26T21:41:55.952Z,89.84
2022-09-26T21:44:34.086Z,90.07
2022-09-26T21:47:00.710Z,93.08
2022-09-26T21:49:27.377Z,95.45
2022-09-26T21:52:02.589Z,96.19
2022-09-26T21:54:36.484Z,98.51
2022-09-26T21:57:10.019Z,99.70
2022-09-26T21:59:37.367Z,100.00
2022-09-26T22:02:04.292Z,100.00
2022-09-26T22:04:30.975Z,100.00
2022-09-26T22:06:57.660Z,100.00
2022-09-26T22:09:24.314Z,100.00
2022-09-26T22:11:50.947Z,100.00
2022-09-26T22:14:17.606Z,100.00
2022-09-26T22:16:44.346Z,100.00
2022-09-26T22:19:11.103Z,100.00
2022-09-26T22:21:37.758Z,100.00
2022-09-26T22:24:04.421Z,100.00
2022-09-26T22:26:31.044Z,100.00
2022-09-26T22:28:57.635Z,100.00
2022-09-26T22:31:24.321Z,100.00
2022-09-26T22:33:50.940Z,100.00
2022-09-26T22:36:17.657Z,100.00
2022-09-26T22:38:45.161Z,100.00
2022-09-26T22:41:11.779Z,100.00
2022-09-26T22:43:38.412Z,100.00
2022-09-26T22:46:08.110Z,100.00
2022-09-26T22:48:43.324Z,100.00
2022-09-26T22:51:10.154Z,100.00
2022-09-26T22:53:38.135Z,100.00
2022-09-26T22:56:05.854Z,100.00
2022-09-26T22:58:41.582Z,100.00
2022-09-26T23:01:11.601Z,100.00
2022-09-26T23:03:38.793Z,100.00
2022-09-26T23:06:05.942Z,100.00
2022-09-26T23:08:36.175Z,100.00
2022-09-26T23:11:04.140Z,100.00
2022-09-26T23:13:32.651Z,100.00
2022-09-26T23:16:13.940Z,100.00
2022-09-26T23:18:41.704Z,100.00
2022-09-26T23:21:09.338Z,100.00
2022-09-26T23:23:36.837Z,100.00
2022-09-26T23:26:05.815Z,100.00
2022-09-26T23:28:33.812Z,100.00
2022-09-26T23:31:05.939Z,100.00
2022-09-26T23:33:33.147Z,100.00
2022-09-26T23:36:00.692Z,100.00
2022-09-26T23:38:27.847Z,100.00
2022-09-26T23:40:55.001Z,100.00
2022-09-26T23:43:22.094Z,100.00
2022-09-26T23:45:49.606Z,100.00
2022-09-26T23:48:16.474Z,100.00
2022-09-26T23:50:44.680Z,100.00
2022-09-26T23:53:11.672Z,100.00
2022-09-26T23:55:38.256Z,100.00
2022-09-26T23:58:04.979Z,100.00
